Terminal Aerodrome Forecast
Issued by NWS

Home | Current Version | Previous Version | Graphics & Text | Print | Product List | Glossary On
Versions: 1 2 3 4 5 6 7 8 9 10 11 12
548
FTUS43 KFGF 270520
TAFBJI
TAF
KBJI 270520Z 2706/2806 02005KT P6SM BKN100
     FM271900 36006KT P6SM SCT150=

USA.gov is the U.S. government's official web portal to all federal, state and local government web resources and services.